Time;durP1;ratioP1;P1;durP2;ratioP2;P2;SDS_P1;SDS_P2;PMS_P1;PMS_P2;Temp;Humidity;BMP_temperature;BMP_pressure;BME280_temperature;BME280_humidity;BME280_pressure;Samples;Min_cycle;Max_cycle;Signal;HPM_P1;HPM_P2
2022/11/12 00:00:30;;;;;;;17.47;15.53;;;;;;;5.72;100.00;98272.13;4974937;28;20732;-66
2022/11/12 00:02:56;;;;;;;21.43;16.37;;;;;;;5.72;100.00;98273.91;4975109;28;20185;-66
2022/11/12 00:05:21;;;;;;;19.33;16.00;;;;;;;5.58;100.00;98274.50;4975300;28;20196;-69
2022/11/12 00:07:46;;;;;;;21.67;17.53;;;;;;;5.47;100.00;98267.81;4975269;28;20192;-68
2022/11/12 00:10:12;;;;;;;18.37;16.47;;;;;;;5.54;100.00;98270.59;4978970;28;20246;-69
2022/11/12 00:12:38;;;;;;;19.07;16.90;;;;;;;5.56;100.00;98266.88;4974782;28;20191;-69
2022/11/12 00:15:04;;;;;;;17.57;15.63;;;;;;;5.54;100.00;98265.41;4993376;28;20657;-68
2022/11/12 00:17:30;;;;;;;18.17;16.07;;;;;;;5.67;100.00;98264.00;4993660;28;20184;-68
2022/11/12 00:19:55;;;;;;;17.03;15.23;;;;;;;5.74;100.00;98262.34;4989546;28;20221;-68
2022/11/12 00:22:21;;;;;;;19.77;15.80;;;;;;;5.73;100.00;98268.56;4989749;28;20194;-69
2022/11/12 00:24:46;;;;;;;18.30;16.33;;;;;;;5.77;100.00;98272.47;4993242;28;20183;-69
2022/11/12 00:27:11;;;;;;;17.83;15.33;;;;;;;5.67;100.00;98269.19;4993000;28;20255;-69
2022/11/12 00:29:37;;;;;;;20.00;15.73;;;;;;;5.66;100.00;98261.53;4991453;28;20631;-68
2022/11/12 00:32:05;;;;;;;20.00;16.40;;;;;;;5.78;100.00;98260.28;4974660;28;20187;-69
2022/11/12 00:34:30;;;;;;;20.17;16.13;;;;;;;5.78;100.00;98266.28;4974319;28;20184;-69
2022/11/12 00:36:56;;;;;;;19.77;16.17;;;;;;;5.79;100.00;98265.31;4974209;28;20199;-68
2022/11/12 00:39:21;;;;;;;17.60;15.33;;;;;;;5.75;100.00;98263.19;4974662;28;20208;-68
2022/11/12 00:41:46;;;;;;;18.77;16.37;;;;;;;5.73;100.00;98273.75;4982359;28;20180;-68
2022/11/12 00:44:12;;;;;;;16.87;15.23;;;;;;;5.70;100.00;98271.47;4980148;28;20191;-68
2022/11/12 00:46:37;;;;;;;20.37;17.00;;;;;;;5.75;100.00;98274.41;4993196;28;20191;-69
2022/11/12 00:49:02;;;;;;;19.27;17.17;;;;;;;5.57;100.00;98265.09;4981739;28;20184;-69
2022/11/12 00:51:27;;;;;;;19.03;15.67;;;;;;;5.59;100.00;98263.13;4986783;28;20231;-68
2022/11/12 00:53:53;;;;;;;19.20;16.80;;;;;;;5.46;100.00;98268.00;4974453;28;20586;-69
2022/11/12 00:56:18;;;;;;;20.87;16.63;;;;;;;5.46;100.00;98255.81;4956794;28;20375;-70
2022/11/12 00:58:43;;;;;;;18.13;16.23;;;;;;;5.42;100.00;98252.69;4982180;28;20271;-68
2022/11/12 01:01:15;;;;;;;17.50;15.73;;;;;;;5.46;100.00;98255.00;4982656;28;20666;-70
2022/11/12 01:03:41;;;;;;;17.83;15.63;;;;;;;5.40;100.00;98256.44;4962309;28;20223;-69
2022/11/12 01:06:12;;;;;;;17.83;16.03;;;;;;;5.42;100.00;98255.28;4983151;28;20713;-68
2022/11/12 01:08:38;;;;;;;19.03;15.80;;;;;;;5.40;100.00;98264.25;4979414;28;20196;-68
2022/11/12 01:11:09;;;;;;;18.50;15.30;;;;;;;5.32;100.00;98261.59;4973725;28;20287;-69
2022/11/12 01:13:36;;;;;;;18.47;16.50;;;;;;;5.17;100.00;98261.38;4974006;28;20236;-68
2022/11/12 01:16:13;;;;;;;18.20;16.23;;;;;;;4.99;100.00;98256.25;4975072;28;20200;-68
2022/11/12 01:18:39;;;;;;;17.10;15.30;;;;;;;4.88;100.00;98253.13;4974652;28;20528;-69
2022/11/12 01:21:06;;;;;;;17.83;16.03;;;;;;;4.95;100.00;98261.94;4993384;28;20210;-68
2022/11/12 01:23:34;;;;;;;16.60;14.90;;;;;;;4.84;100.00;98262.19;4993050;28;20239;-69
2022/11/12 01:26:04;;;;;;;15.07;13.57;;;;;;;4.71;100.00;98254.81;4981376;28;20176;-68
2022/11/12 01:28:29;;;;;;;17.00;15.27;;;;;;;4.64;100.00;98258.16;4955574;28;20263;-69
2022/11/12 01:30:55;;;;;;;15.67;13.50;;;;;;;4.52;100.00;98244.63;4957120;28;20185;-68
2022/11/12 01:33:20;;;;;;;15.27;13.83;;;;;;;4.56;100.00;98241.59;4964021;28;20195;-68
2022/11/12 01:35:45;;;;;;;16.70;15.03;;;;;;;4.60;100.00;98236.88;4971041;28;20207;-68
2022/11/12 01:38:11;;;;;;;15.47;13.87;;;;;;;4.67;100.00;98239.69;4993027;28;20187;-68
2022/11/12 01:40:36;;;;;;;15.73;14.20;;;;;;;4.76;100.00;98236.16;4992876;28;20607;-68
2022/11/12 01:43:01;;;;;;;15.87;14.27;;;;;;;4.78;100.00;98235.06;4992371;28;20572;-69
2022/11/12 01:45:27;;;;;;;15.83;14.33;;;;;;;4.76;100.00;98238.75;4986182;28;20192;-68
2022/11/12 01:47:53;;;;;;;15.87;14.37;;;;;;;4.75;100.00;98237.13;4973796;28;20203;-68
2022/11/12 01:50:31;;;;;;;15.33;13.83;;;;;;;4.72;100.00;98230.47;4973446;28;20231;-68
2022/11/12 01:53:05;;;;;;;15.57;14.13;;;;;;;4.73;100.00;98223.50;4973269;28;20181;-68
2022/11/12 01:55:35;;;;;;;16.37;14.67;;;;;;;4.73;100.00;98220.91;4979980;28;20184;-68
2022/11/12 01:58:10;;;;;;;16.07;14.37;;;;;;;4.66;100.00;98225.06;4992877;28;20238;-68
2022/11/12 02:00:36;;;;;;;14.93;13.03;;;;;;;4.65;100.00;98221.66;4992379;28;20672;-68
2022/11/12 02:03:07;;;;;;;16.57;13.50;;;;;;;4.65;100.00;98229.44;4976823;28;20255;-68
2022/11/12 02:05:33;;;;;;;16.43;13.33;;;;;;;4.56;100.00;98214.81;4977591;28;20173;-68
2022/11/12 02:08:00;;;;;;;15.23;13.73;;;;;;;4.54;100.00;98207.16;4992485;28;20191;-70
2022/11/12 02:10:25;;;;;;;14.47;13.07;;;;;;;4.52;100.00;98213.47;4992051;28;20187;-68
2022/11/12 02:15:37;;;;;;;14.30;13.00;;;;;;;4.55;100.00;98218.38;4989703;28;20603;-69
2022/11/12 02:18:04;;;;;;;13.97;12.57;;;;;;;4.57;100.00;98213.81;4996258;28;20275;-69
2022/11/12 02:20:33;;;;;;;14.30;12.80;;;;;;;4.55;100.00;98208.78;4976518;28;20204;-69
2022/11/12 02:22:58;;;;;;;14.27;12.83;;;;;;;4.50;100.00;98205.84;4982511;28;20191;-69
2022/11/12 02:25:25;;;;;;;13.57;12.27;;;;;;;4.54;100.00;98208.94;4992599;28;20189;-68
2022/11/12 02:27:54;;;;;;;13.63;12.33;;;;;;;4.46;100.00;98199.31;4976550;28;20216;-69
2022/11/12 02:30:32;;;;;;;13.63;12.40;;;;;;;4.44;100.00;98201.25;4977925;28;20684;-68
2022/11/12 02:32:57;;;;;;;12.87;11.57;;;;;;;4.44;100.00;98198.66;4986992;28;20191;-69
2022/11/12 02:35:23;;;;;;;12.47;11.17;;;;;;;4.45;100.00;98191.69;4978725;28;20176;-68
2022/11/12 02:37:48;;;;;;;13.67;12.37;;;;;;;4.46;100.00;98191.53;4996454;28;20640;-68
2022/11/12 02:40:13;;;;;;;12.70;11.13;;;;;;;4.53;100.00;98195.13;4987932;28;20615;-68
2022/11/12 02:42:39;;;;;;;12.93;11.57;;;;;;;4.53;100.00;98191.72;4977875;28;20634;-68
2022/11/12 02:45:04;;;;;;;12.70;11.40;;;;;;;4.55;100.00;98195.81;4977691;28;20189;-68
2022/11/12 02:47:30;;;;;;;13.53;11.57;;;;;;;4.59;100.00;98191.13;4977175;28;20192;-68
2022/11/12 02:49:55;;;;;;;12.57;11.47;;;;;;;4.54;100.00;98201.97;4982031;28;20199;-68
2022/11/12 02:52:20;;;;;;;12.83;11.53;;;;;;;4.50;100.00;98205.03;4993894;28;20215;-68
2022/11/12 02:54:46;;;;;;;13.07;11.77;;;;;;;4.45;100.00;98197.72;4983874;28;20232;-68
2022/11/12 02:57:11;;;;;;;12.67;11.53;;;;;;;4.48;100.00;98194.78;4992466;28;20539;-68
2022/11/12 02:59:36;;;;;;;13.10;11.87;;;;;;;4.42;100.00;98205.78;4993085;28;20437;-68
2022/11/12 03:02:02;;;;;;;12.93;11.80;;;;;;;4.46;100.00;98204.50;4984000;28;20275;-68
2022/11/12 03:04:27;;;;;;;12.50;11.30;;;;;;;4.40;100.00;98205.09;4981973;28;20185;-68
2022/11/12 03:06:52;;;;;;;12.03;11.00;;;;;;;4.07;100.00;98209.25;4976375;28;20188;-68
2022/11/12 03:09:18;;;;;;;11.63;10.27;;;;;;;3.91;100.00;98208.31;4943165;28;20264;-68
2022/11/12 03:11:43;;;;;;;11.60;10.70;;;;;;;3.80;100.00;98206.75;4963338;28;20184;-68
2022/11/12 03:14:08;;;;;;;11.63;10.53;;;;;;;3.84;100.00;98208.13;4985878;28;20200;-68
2022/11/12 03:16:33;;;;;;;11.20;10.20;;;;;;;3.84;100.00;98209.91;4993251;28;20184;-69
2022/11/12 03:18:59;;;;;;;11.53;10.57;;;;;;;3.80;100.00;98209.34;4995124;28;20707;-70
2022/11/12 03:21:24;;;;;;;11.27;10.27;;;;;;;3.74;100.00;98215.13;4992613;28;20212;-68
2022/11/12 03:23:49;;;;;;;11.97;10.77;;;;;;;3.71;100.00;98211.06;4976293;28;20184;-68
2022/11/12 03:26:15;;;;;;;11.00;10.03;;;;;;;3.74;100.00;98205.56;4991155;28;20524;-68
2022/11/12 03:28:40;;;;;;;10.63;9.60;;;;;;;3.78;100.00;98203.53;4989888;28;20228;-68
2022/11/12 03:31:05;;;;;;;11.77;10.73;;;;;;;3.95;100.00;98199.28;4994026;28;20196;-67
2022/11/12 03:33:31;;;;;;;10.73;9.83;;;;;;;3.86;100.00;98202.75;4995175;28;20234;-68
2022/11/12 03:35:56;;;;;;;11.23;10.23;;;;;;;3.71;100.00;98197.28;4982685;28;20271;-67
2022/11/12 03:38:21;;;;;;;10.30;9.40;;;;;;;3.72;100.00;98199.75;4993453;28;20311;-68
2022/11/12 03:40:48;;;;;;;10.57;9.67;;;;;;;3.62;100.00;98200.78;4984326;28;20290;-68
2022/11/12 03:43:13;;;;;;;10.53;9.63;;;;;;;3.61;100.00;98201.75;4983820;28;20204;-67
2022/11/12 03:45:38;;;;;;;9.43;8.63;;;;;;;3.58;100.00;98207.22;4981066;28;20184;-67
2022/11/12 03:48:04;;;;;;;9.63;8.83;;;;;;;3.51;100.00;98204.38;4995136;28;20194;-67
2022/11/12 03:50:30;;;;;;;10.03;9.23;;;;;;;3.24;100.00;98209.59;4990237;28;20236;-67
2022/11/12 03:52:57;;;;;;;9.50;8.73;;;;;;;3.12;100.00;98210.78;4978908;28;20207;-68
2022/11/12 03:55:24;;;;;;;10.67;9.87;;;;;;;3.22;100.00;98208.94;4961833;28;20704;-67
2022/11/12 03:57:51;;;;;;;10.47;9.67;;;;;;;3.15;100.00;98216.47;4975905;28;20269;-67
2022/11/12 04:00:18;;;;;;;10.97;10.17;;;;;;;3.09;100.00;98213.66;4975179;28;20682;-67
2022/11/12 04:02:44;;;;;;;10.83;9.93;;;;;;;3.13;100.00;98218.38;4974849;28;20189;-67
2022/11/12 04:10:47;;;;;;;10.33;9.63;;;;;;;3.14;100.00;98212.25;4981217;28;20183;-67
2022/11/12 04:13:28;;;;;;;12.27;11.37;;;;;;;3.25;100.00;98213.84;4990024;28;20208;-67
2022/11/12 04:26:21;;;;;;;10.87;9.97;;;;;;;3.31;100.00;98213.25;4990719;28;20249;-67
2022/11/12 04:26:58;;;;;;;11.03;10.13;;;;;;;3.27;100.00;98209.34;4974808;28;20584;-67
2022/11/12 04:32:08;;;;;;;10.67;9.87;;;;;;;3.34;100.00;98207.78;4987927;28;20231;-67
2022/11/12 04:34:33;;;;;;;9.83;9.13;;;;;;;3.42;100.00;98205.28;4980586;28;20189;-68
2022/11/12 04:37:00;;;;;;;10.07;9.37;;;;;;;3.51;100.00;98204.38;4974868;28;20215;-68
2022/11/12 04:39:25;;;;;;;10.30;9.50;;;;;;;3.44;100.00;98202.53;4978433;28;20227;-67
2022/11/12 04:47:18;;;;;;;10.80;10.00;;;;;;;3.48;100.00;98196.09;4975631;28;20268;-68
2022/11/12 04:49:43;;;;;;;10.73;9.90;;;;;;;3.50;100.00;98192.41;4985789;28;20275;-68
2022/11/12 04:52:09;;;;;;;10.03;9.23;;;;;;;3.53;100.00;98189.50;4991499;28;20190;-68
2022/11/12 04:54:34;;;;;;;10.83;9.93;;;;;;;3.73;100.00;98193.56;4979513;28;20194;-67
2022/11/12 04:57:00;;;;;;;11.23;10.43;;;;;;;3.61;100.00;98191.38;4974623;28;20243;-67
2022/11/12 04:59:25;;;;;;;10.27;9.40;;;;;;;3.57;100.00;98202.97;4981316;28;20240;-67
2022/11/12 05:01:51;;;;;;;11.43;10.53;;;;;;;3.68;100.00;98213.13;4978002;28;20190;-69
2022/11/12 05:04:16;;;;;;;11.17;10.17;;;;;;;3.72;100.00;98201.53;4978458;28;20192;-67
2022/11/12 05:06:50;;;;;;;11.70;10.73;;;;;;;3.43;100.00;98203.50;4978734;28;20187;-68
2022/11/12 05:09:17;;;;;;;12.00;10.93;;;;;;;3.53;100.00;98202.47;4992927;28;20607;-67
2022/11/12 05:11:42;;;;;;;11.60;10.70;;;;;;;3.62;100.00;98209.34;4993737;28;20188;-67
2022/11/12 05:14:08;;;;;;;11.23;10.33;;;;;;;3.58;100.00;98210.63;4993072;28;20242;-68
2022/11/12 05:16:33;;;;;;;11.57;10.67;;;;;;;3.51;100.00;98209.56;4981026;28;20180;-68
2022/11/12 05:18:58;;;;;;;11.87;10.87;;;;;;;3.43;100.00;98206.91;4985403;28;20188;-68
2022/11/12 05:24:08;;;;;;;12.27;11.17;;;;;;;3.34;100.00;98210.38;4974129;28;20192;-67
2022/11/12 05:26:33;;;;;;;11.50;10.50;;;;;;;3.34;100.00;98202.63;4978177;28;20192;-67
2022/11/12 05:28:58;;;;;;;12.33;11.13;;;;;;;3.53;100.00;98204.25;4984761;28;20228;-68
2022/11/12 05:31:24;;;;;;;12.27;11.37;;;;;;;3.55;100.00;98210.09;4978555;28;20231;-69
2022/11/12 05:33:49;;;;;;;13.30;12.20;;;;;;;3.38;100.00;98208.31;4985913;28;20216;-68
2022/11/12 05:36:15;;;;;;;24.77;11.87;;;;;;;3.33;100.00;98204.38;4982140;28;20226;-68
2022/11/12 05:38:40;;;;;;;11.87;10.73;;;;;;;3.33;100.00;98201.78;4975094;28;20231;-68
2022/11/12 05:41:05;;;;;;;12.10;10.37;;;;;;;3.40;100.00;98207.19;4973971;28;20212;-68
2022/11/12 05:43:30;;;;;;;14.53;10.77;;;;;;;3.31;100.00;98211.47;4978041;28;20610;-70
2022/11/12 05:45:56;;;;;;;13.43;11.07;;;;;;;3.29;100.00;98204.81;4993236;28;20184;-69
2022/11/12 05:48:21;;;;;;;15.03;10.67;;;;;;;3.37;100.00;98206.66;4971352;28;20207;-67
2022/11/12 05:50:50;;;;;;;23.97;10.77;;;;;;;3.42;100.00;98215.63;4987661;28;20191;-67
2022/11/12 05:53:15;;;;;;;11.63;10.53;;;;;;;3.31;100.00;98219.25;4996934;28;20649;-68
2022/11/12 05:55:41;;;;;;;14.00;11.43;;;;;;;3.22;100.00;98219.31;4996774;28;20720;-68
2022/11/12 05:58:06;;;;;;;25.83;10.80;;;;;;;3.29;100.00;98215.16;4989094;28;20188;-68
2022/11/12 06:00:37;;;;;;;27.00;11.00;;;;;;;3.30;100.00;98225.38;4996654;28;20338;-68
2022/11/12 06:03:09;;;;;;;11.93;10.93;;;;;;;3.10;100.00;98221.28;4979732;28;20197;-67
2022/11/12 06:05:35;;;;;;;12.53;11.20;;;;;;;3.10;100.00;98230.81;4982149;28;20199;-67
2022/11/12 06:08:02;;;;;;;12.20;11.03;;;;;;;3.11;100.00;98224.69;4988636;28;20231;-67
2022/11/12 06:10:29;;;;;;;19.67;11.03;;;;;;;3.20;100.00;98226.41;4977440;28;20201;-68
2022/11/12 06:12:54;;;;;;;17.27;10.87;;;;;;;3.06;100.00;98229.50;4977371;28;20539;-68
2022/11/12 06:15:20;;;;;;;15.10;11.77;;;;;;;3.07;100.00;98228.50;4995889;28;20195;-68
2022/11/12 06:17:45;;;;;;;11.47;10.47;;;;;;;2.99;100.00;98236.19;4990843;28;20638;-68
2022/11/12 06:20:11;;;;;;;11.67;10.47;;;;;;;2.98;100.00;98234.56;4993630;28;20637;-68
2022/11/12 06:22:36;;;;;;;13.57;10.40;;;;;;;3.03;100.00;98233.16;4977293;28;20208;-68
2022/11/12 06:25:02;;;;;;;18.40;9.80;;;;;;;3.08;100.00;98235.31;4959760;28;20279;-68
2022/11/12 06:27:28;;;;;;;35.50;9.70;;;;;;;3.09;100.00;98242.13;4976867;28;20255;-68
2022/11/12 06:29:53;;;;;;;13.23;9.47;;;;;;;3.16;100.00;98235.44;4977524;28;20177;-68
2022/11/12 06:32:18;;;;;;;10.73;9.63;;;;;;;3.14;100.00;98238.16;4977431;28;20611;-68
2022/11/12 06:34:44;;;;;;;11.50;9.83;;;;;;;3.13;100.00;98238.28;4978229;28;20185;-67
2022/11/12 06:37:09;;;;;;;11.07;9.40;;;;;;;3.08;100.00;98243.91;4977071;28;20643;-68
2022/11/12 06:39:34;;;;;;;16.30;10.07;;;;;;;3.16;100.00;98244.03;4993282;28;20276;-68
2022/11/12 06:42:00;;;;;;;9.80;9.00;;;;;;;3.19;100.00;98235.94;4996286;28;20199;-68
2022/11/12 06:44:26;;;;;;;11.47;10.37;;;;;;;3.18;100.00;98234.31;4995934;28;20184;-68
2022/11/12 06:46:52;;;;;;;10.43;9.53;;;;;;;3.16;100.00;98225.88;4979899;28;20196;-69
2022/11/12 06:49:17;;;;;;;11.43;10.43;;;;;;;3.27;100.00;98228.28;4987774;28;20203;-67
2022/11/12 06:51:43;;;;;;;10.73;9.83;;;;;;;3.42;100.00;98225.19;4995816;28;20246;-68
2022/11/12 06:54:08;;;;;;;10.63;9.63;;;;;;;3.45;100.00;98230.91;4955866;28;20181;-68
2022/11/12 06:56:33;;;;;;;11.10;10.10;;;;;;;3.49;100.00;98224.47;4973105;28;20192;-68
2022/11/12 06:58:59;;;;;;;10.87;9.87;;;;;;;3.60;100.00;98232.03;4983765;28;20193;-69
2022/11/12 07:01:24;;;;;;;10.20;9.27;;;;;;;3.87;100.00;98231.16;4970855;28;20205;-68
2022/11/12 07:03:51;;;;;;;10.97;9.87;;;;;;;3.82;100.00;98235.97;4972239;28;20188;-68
2022/11/12 07:06:19;;;;;;;10.40;9.40;;;;;;;3.73;100.00;98231.69;4976938;28;20477;-68
2022/11/12 07:08:45;;;;;;;10.77;9.67;;;;;;;3.91;100.00;98235.06;4977683;28;20327;-67
2022/11/12 07:11:11;;;;;;;13.10;10.17;;;;;;;4.21;100.00;98228.66;4976549;28;20217;-67
2022/11/12 07:13:37;;;;;;;11.97;10.33;;;;;;;3.71;100.00;98218.03;4980972;28;20362;-69
2022/11/12 07:16:05;;;;;;;11.50;10.30;;;;;;;4.04;100.00;98227.72;4995605;28;20196;-68
2022/11/12 07:18:31;;;;;;;11.07;9.97;;;;;;;4.30;100.00;98226.94;4995226;28;20180;-68
2022/11/12 07:21:01;;;;;;;10.70;9.70;;;;;;;4.30;100.00;98226.94;4994802;28;20204;-67
2022/11/12 07:23:28;;;;;;;10.80;9.73;;;;;;;4.51;100.00;98235.22;4959321;28;20191;-66
2022/11/12 07:25:59;;;;;;;10.73;9.73;;;;;;;4.59;100.00;98230.06;4976942;28;20196;-68
2022/11/12 07:28:25;;;;;;;10.83;9.83;;;;;;;4.88;100.00;98240.13;4976126;28;20236;-66
2022/11/12 07:31:11;;;;;;;11.63;10.53;;;;;;;4.84;100.00;98224.06;4976216;28;20284;-65
2022/11/12 07:33:36;;;;;;;14.80;13.60;;;;;;;4.51;100.00;98223.03;4981232;28;20541;-66
2022/11/12 07:36:13;;;;;;;14.37;12.97;;;;;;;4.41;100.00;98224.09;4995318;28;20219;-65
2022/11/12 07:38:40;;;;;;;12.37;11.07;;;;;;;4.55;100.00;98219.19;4993572;28;20661;-66
2022/11/12 07:41:15;;;;;;;11.90;10.67;;;;;;;4.72;100.00;98224.47;4977214;28;20204;-66
2022/11/12 07:43:43;;;;;;;11.53;9.90;;;;;;;4.42;100.00;98233.53;4987908;28;20169;-66
2022/11/12 07:46:20;;;;;;;12.63;10.53;;;;;;;4.60;100.00;98227.31;4971078;28;20192;-65
2022/11/12 07:48:46;;;;;;;11.77;10.03;;;;;;;4.49;100.00;98229.34;4980296;28;20187;-65
2022/11/12 07:51:14;;;;;;;12.53;10.13;;;;;;;4.46;100.00;98225.28;4993160;28;20586;-66
2022/11/12 07:53:40;;;;;;;11.47;8.93;;;;;;;4.03;100.00;98228.69;4975846;28;20184;-66
2022/11/12 07:56:06;;;;;;;16.63;9.67;;;;;;;4.09;100.00;98232.47;4994650;28;20199;-65
2022/11/12 07:58:33;;;;;;;13.90;9.70;;;;;;;4.12;100.00;98224.41;4982581;28;20537;-65
2022/11/12 08:01:26;;;;;;;12.27;10.60;;;;;;;3.91;100.00;98235.06;4974432;28;20213;-65
2022/11/12 08:03:51;;;;;;;25.33;10.47;;;;;;;3.96;100.00;98226.81;4962577;28;20263;-65
2022/11/12 08:06:16;;;;;;;36.87;10.17;;;;;;;3.98;100.00;98225.72;4960133;28;20642;-64
2022/11/12 08:08:42;;;;;;;23.40;10.97;;;;;;;4.15;100.00;98231.88;4975512;28;20212;-64
2022/11/12 08:11:07;;;;;;;14.67;10.33;;;;;;;4.15;100.00;98227.50;4974233;28;20272;-65
2022/11/12 08:13:32;;;;;;;30.17;10.67;;;;;;;4.38;100.00;98225.22;4975214;28;20208;-63
2022/11/12 08:15:58;;;;;;;25.57;10.40;;;;;;;4.15;100.00;98227.50;4986163;28;20203;-65
2022/11/12 08:18:25;;;;;;;10.93;10.03;;;;;;;4.37;100.00;98230.56;4982753;28;20216;-64
2022/11/12 08:20:50;;;;;;;45.70;10.73;;;;;;;4.70;100.00;98227.19;4975694;28;20740;-64
2022/11/12 08:23:16;;;;;;;17.80;10.23;;;;;;;4.54;100.00;98225.34;4962948;28;20280;-65
2022/11/12 08:25:41;;;;;;;26.03;10.57;;;;;;;4.78;100.00;98222.06;4982971;28;20654;-65
2022/11/12 08:28:07;;;;;;;10.40;9.40;;;;;;;4.96;100.00;98222.78;4974325;28;20260;-65
2022/11/12 08:30:33;;;;;;;12.20;9.17;;;;;;;5.06;100.00;98229.66;4974820;28;20275;-65
2022/11/12 08:33:01;;;;;;;9.90;8.90;;;;;;;5.33;100.00;98227.66;4991948;28;20187;-65
2022/11/12 08:35:27;;;;;;;9.93;8.17;;;;;;;5.28;100.00;98229.09;4985956;28;20188;-65
2022/11/12 08:38:00;;;;;;;11.73;9.13;;;;;;;5.54;100.00;98232.41;4974750;28;20244;-64
2022/11/12 08:40:28;;;;;;;11.87;9.23;;;;;;;5.52;100.00;98230.97;4974254;28;20197;-64
2022/11/12 08:43:04;;;;;;;14.57;8.57;;;;;;;5.53;100.00;98233.38;4957123;28;20183;-66
2022/11/12 08:45:35;;;;;;;9.87;7.53;;;;;;;5.61;100.00;98230.81;4982238;28;20207;-66
2022/11/12 08:48:04;;;;;;;8.03;7.33;;;;;;;6.00;100.00;98232.84;4956958;28;20232;-65
2022/11/12 08:50:29;;;;;;;8.40;7.80;;;;;;;5.85;100.00;98230.84;4974480;28;20201;-66
2022/11/12 08:53:00;;;;;;;8.37;7.57;;;;;;;6.01;100.00;98224.88;4974491;28;20196;-66
2022/11/12 08:55:26;;;;;;;13.70;12.70;;;;;;;6.32;100.00;98232.84;4986690;28;20181;-66
2022/11/12 08:57:52;;;;;;;13.40;12.30;;;;;;;6.17;100.00;98232.69;4974634;28;20203;-67
2022/11/12 09:00:17;;;;;;;14.43;13.13;;;;;;;6.57;100.00;98242.28;4973916;28;20209;-68
2022/11/12 09:02:42;;;;;;;11.57;10.57;;;;;;;6.56;100.00;98234.63;4967176;28;20189;-66
2022/11/12 09:05:08;;;;;;;11.03;10.13;;;;;;;6.77;100.00;98228.88;4986272;28;20267;-66
2022/11/12 09:07:33;;;;;;;12.33;11.33;;;;;;;6.61;100.00;98227.13;4988352;28;20207;-66
2022/11/12 09:09:59;;;;;;;13.90;12.60;;;;;;;6.64;100.00;98229.38;4961452;28;20192;-66
2022/11/12 09:12:25;;;;;;;23.97;22.30;;;;;;;6.71;100.00;98232.94;4973545;28;20196;-67
2022/11/12 09:14:50;;;;;;;14.67;13.57;;;;;;;6.84;100.00;98222.00;4974024;28;20185;-66
2022/11/12 09:17:16;;;;;;;14.97;13.80;;;;;;;6.73;100.00;98232.78;4989260;28;20199;-66
2022/11/12 09:19:41;;;;;;;13.30;12.30;;;;;;;6.92;100.00;98222.78;4973897;28;20208;-67
2022/11/12 09:22:07;;;;;;;13.90;12.70;;;;;;;6.77;100.00;98219.25;4972884;28;20189;-67
2022/11/12 09:24:32;;;;;;;13.50;12.50;;;;;;;7.04;100.00;98211.03;4973631;28;20184;-66
2022/11/12 09:26:57;;;;;;;18.07;16.77;;;;;;;6.90;100.00;98206.53;4988906;28;20187;-67
2022/11/12 09:29:22;;;;;;;22.20;20.70;;;;;;;6.82;100.00;98211.75;4977982;28;20188;-67
2022/11/12 09:31:48;;;;;;;19.40;18.10;;;;;;;7.13;100.00;98216.22;4983865;28;20196;-65
2022/11/12 09:34:13;;;;;;;16.10;15.00;;;;;;;7.25;100.00;98210.44;4965299;28;20211;-65
2022/11/12 09:36:38;;;;;;;19.87;18.57;;;;;;;7.09;100.00;98215.72;4988414;28;20199;-65
2022/11/12 09:39:04;;;;;;;20.20;18.70;;;;;;;7.20;100.00;98210.13;4975151;28;20200;-66
2022/11/12 09:41:36;;;;;;;25.97;23.80;;;;;;;7.05;100.00;98212.66;4972878;28;20276;-67
2022/11/12 09:44:23;;;;;;;18.00;16.80;;;;;;;7.00;100.00;98212.34;4982433;28;20203;-67
2022/11/12 09:46:57;;;;;;;13.40;12.40;;;;;;;7.21;100.00;98208.34;4977174;28;20177;-69
2022/11/12 09:49:29;;;;;;;16.53;15.33;;;;;;;7.24;100.00;98214.06;4984403;28;20183;-69
2022/11/12 09:52:03;;;;;;;16.00;14.70;;;;;;;7.29;100.00;98209.13;4985499;28;20258;-72
2022/11/12 09:54:34;;;;;;;15.07;14.07;;;;;;;7.25;100.00;98215.66;4992562;28;20172;-68
2022/11/12 09:57:00;;;;;;;15.43;14.43;;;;;;;7.10;100.00;98209.53;4975330;28;20189;-67
2022/11/12 09:59:28;;;;;;;21.20;19.73;;;;;;;7.09;100.00;98203.50;4973569;28;20271;-69
2022/11/12 10:02:23;;;;;;;10.93;10.13;;;;;;;7.16;100.00;98208.84;4955314;28;20188;-65
2022/11/12 10:05:28;;;;;;;11.50;10.50;;;;;;;7.02;100.00;98212.19;4967330;28;20216;-69
2022/11/12 10:08:31;;;;;;;20.90;19.40;;;;;;;7.24;100.00;98208.03;4959852;28;20821;-68
2022/11/12 10:11:17;;;;;;;21.50;20.10;;;;;;;7.41;100.00;98207.75;4972482;28;20646;-73
2022/11/12 10:14:11;;;;;;;14.93;13.93;;;;;;;7.53;100.00;98210.78;4965027;28;20211;-69
2022/11/12 10:16:54;;;;;;;11.37;10.40;;;;;;;7.48;100.00;98211.31;4952095;28;20229;-68
2022/11/12 10:19:26;;;;;;;9.17;8.37;;;;;;;7.42;100.00;98211.16;4973015;28;20182;-69
2022/11/12 10:22:16;;;;;;;9.10;8.40;;;;;;;7.99;100.00;98211.63;4973573;28;20192;-69
2022/11/12 10:24:43;;;;;;;9.03;8.33;;;;;;;8.24;100.00;98204.41;4956704;28;20231;-70
2022/11/12 10:27:20;;;;;;;9.83;8.93;;;;;;;8.25;100.00;98199.00;4989921;28;20235;-69
2022/11/12 10:30:09;;;;;;;8.13;7.53;;;;;;;8.46;100.00;98197.53;4991477;28;20176;-70
2022/11/12 10:32:36;;;;;;;8.50;7.90;;;;;;;8.40;100.00;98198.25;4991273;28;20203;-68
2022/11/12 10:35:01;;;;;;;8.67;8.03;;;;;;;8.68;100.00;98194.88;4978551;28;20274;-68
2022/11/12 10:37:37;;;;;;;7.87;7.27;;;;;;;9.05;100.00;98188.72;4996117;28;20319;-68
2022/11/12 10:40:33;;;;;;;8.63;7.83;;;;;;;9.04;100.00;98186.28;4961469;28;20251;-67
2022/11/12 10:43:00;;;;;;;9.30;8.47;;;;;;;8.99;100.00;98188.63;4957431;29;20185;-69
2022/11/12 10:45:25;;;;;;;9.17;8.53;;;;;;;9.35;100.00;98194.72;4957397;29;20182;-68
2022/11/12 10:47:51;;;;;;;8.33;7.67;;;;;;;9.32;100.00;98189.03;4967646;28;20208;-68
2022/11/12 10:50:23;;;;;;;9.67;8.97;;;;;;;9.11;100.00;98184.56;4976415;28;20650;-70
2022/11/12 10:53:02;;;;;;;8.90;8.23;;;;;;;9.24;100.00;98184.72;4976097;28;20173;-69
2022/11/12 10:55:36;;;;;;;10.00;9.13;;;;;;;9.32;100.00;98186.41;4976851;28;20177;-69
2022/11/12 10:58:10;;;;;;;15.77;14.77;;;;;;;9.60;100.00;98185.53;4976193;28;20654;-70
2022/11/12 11:01:03;;;;;;;11.50;8.23;;;;;;;9.44;100.00;98177.91;4980423;28;20231;-70
2022/11/12 11:03:50;;;;;;;10.53;9.57;;;;;;;9.29;100.00;98177.13;4995877;28;20172;-70
2022/11/12 11:06:15;;;;;;;17.23;16.23;;;;;;;9.59;100.00;98180.47;4965961;28;20195;-69
2022/11/12 11:08:47;;;;;;;15.90;14.80;;;;;;;9.85;100.00;98180.75;4956976;29;20264;-70
2022/11/12 11:11:15;;;;;;;11.37;10.57;;;;;;;10.01;100.00;98174.44;4957012;29;20185;-70
2022/11/12 11:13:41;;;;;;;10.07;9.27;;;;;;;10.07;100.00;98178.94;4957137;29;20177;-70
2022/11/12 11:16:12;;;;;;;9.83;9.13;;;;;;;9.92;100.00;98172.94;4957162;29;20685;-71
2022/11/12 11:18:40;;;;;;;25.03;23.57;;;;;;;10.18;100.00;98170.59;4957022;29;20185;-70
2022/11/12 11:21:12;;;;;;;27.27;25.67;;;;;;;10.06;100.00;98158.97;4956784;29;20209;-70
2022/11/12 11:24:04;;;;;;;22.70;21.37;;;;;;;9.99;100.00;98161.53;4956549;29;20639;-71
2022/11/12 11:26:59;;;;;;;31.93;30.00;;;;;;;10.08;100.00;98164.03;4956489;29;20186;-70
2022/11/12 11:29:38;;;;;;;25.57;24.03;;;;;;;10.14;100.00;98164.06;4956333;29;20191;-70
2022/11/12 11:32:15;;;;;;;29.77;28.07;;;;;;;10.06;100.00;98164.19;4956282;29;20177;-69
2022/11/12 11:35:06;;;;;;;25.17;23.73;;;;;;;10.27;99.95;98168.63;4939565;29;20595;-69
2022/11/12 11:37:41;;;;;;;32.10;30.23;;;;;;;10.13;99.37;98159.84;4956496;29;20173;-70
2022/11/12 11:40:45;;;;;;;12.67;11.87;;;;;;;10.27;95.77;98152.91;4955920;28;20193;-70
2022/11/12 11:43:31;;;;;;;14.20;9.73;;;;;;;10.01;97.43;98156.09;4941146;29;20193;-70
2022/11/12 11:46:13;;;;;;;8.60;7.90;;;;;;;10.13;97.38;98151.97;4956214;29;20178;-69
2022/11/12 11:49:15;;;;;;;9.37;8.63;;;;;;;10.12;97.84;98155.59;4973757;28;20604;-70
2022/11/12 11:52:02;;;;;;;11.97;9.77;;;;;;;10.12;98.21;98150.34;4964730;28;20188;-70
2022/11/12 11:55:07;;;;;;;10.23;9.20;;;;;;;10.17;98.08;98142.75;4994450;28;20183;-74